Annandale, New Jersey
Current Conditions -  °F | °C
As of 8:53 PM on Monday 22 Dec 2014 (Local Time) from KSMQ Reporting Station
Haze Haze  
Wind Chill: 42°   Ceiling: 700
Heat Index: 42°   Visibility: 5mi
Dew Point: 39°   Wind: 3mph
Humidity: 89%   Direction: 10°N
Pressure: 30.18"   Gusts: NA
Location:  40.65°N, 74.89°W
Report Text: KSMQ 230153Z AUTO 01003KT 5SM BR OVC007 06/04 A3018 RMK AO2 RAB30E47 SLP223 P0000 T00560039
Loading
Personal Weather Stations






























Interactive Weather Map New forecast layout! Learn more

10-Day Weather Forecast

Advertisements
Track Severe Weather on mobile